createdAt,value
2023-03-05T00:02:06.629Z,-4.39
2023-03-05T00:07:12.424Z,-4.45
2023-03-05T00:12:15.529Z,-4.46
2023-03-05T00:17:18.950Z,-4.50
2023-03-05T00:22:22.113Z,-4.54
2023-03-05T00:27:25.060Z,-4.58
2023-03-05T00:32:28.252Z,-4.62
2023-03-05T00:37:31.389Z,-4.37
2023-03-05T00:42:38.851Z,-0.40
2023-03-05T00:47:41.906Z,1.17
2023-03-05T00:52:45.011Z,1.73
2023-03-05T00:57:48.126Z,2.26
2023-03-05T01:02:51.100Z,2.78
2023-03-05T01:07:55.967Z,3.01
2023-03-05T01:12:58.884Z,3.24
2023-03-05T01:18:01.870Z,3.46
2023-03-05T01:23:04.867Z,3.54
2023-03-05T01:28:08.867Z,3.64
2023-03-05T01:33:11.805Z,3.60
2023-03-05T01:38:16.971Z,3.70
2023-03-05T01:43:28.767Z,3.64
2023-03-05T01:48:31.781Z,3.64
2023-03-05T01:53:34.880Z,3.64
2023-03-05T01:58:39.923Z,3.70
2023-03-05T02:03:43.190Z,3.37
2023-03-05T02:08:46.156Z,3.33
2023-03-05T02:13:49.575Z,3.34
2023-03-05T02:18:52.686Z,3.34
2023-03-05T02:23:55.692Z,3.55
2023-03-05T02:29:02.249Z,3.58
2023-03-05T02:34:06.469Z,3.66
2023-03-05T02:39:10.034Z,3.59
2023-03-05T02:44:12.940Z,3.71
2023-03-05T02:49:16.049Z,3.85
2023-03-05T02:54:19.059Z,3.75
2023-03-05T02:59:22.166Z,3.45
2023-03-05T03:04:26.094Z,3.23
2023-03-05T03:09:29.469Z,3.13
2023-03-05T03:14:39.298Z,3.15
2023-03-05T03:19:43.385Z,3.12
2023-03-05T03:24:46.281Z,3.20
2023-03-05T03:29:49.424Z,3.28
2023-03-05T03:34:52.430Z,3.42
2023-03-05T03:39:55.445Z,3.41
2023-03-05T03:44:58.546Z,3.45
2023-03-05T03:50:01.662Z,3.70
2023-03-05T03:55:05.128Z,3.83
2023-03-05T04:00:09.728Z,3.57
2023-03-05T04:05:12.725Z,3.58
2023-03-05T04:10:15.728Z,3.57
2023-03-05T04:15:19.054Z,3.49
2023-03-05T04:20:21.948Z,3.44
2023-03-05T04:25:24.884Z,3.50
2023-03-05T04:30:27.850Z,3.41
2023-03-05T04:35:31.119Z,3.34
2023-03-05T04:40:34.653Z,3.25
2023-03-05T04:45:40.711Z,3.10
2023-03-05T04:50:43.767Z,3.12
2023-03-05T04:55:46.910Z,3.15
2023-03-05T05:00:49.887Z,3.17
2023-03-05T05:05:57.194Z,3.09
2023-03-05T05:11:03.014Z,2.85
2023-03-05T05:16:09.299Z,2.81
2023-03-05T05:21:14.305Z,2.65
2023-03-05T05:26:17.311Z,2.65
2023-03-05T05:31:20.319Z,2.67
2023-03-05T05:36:23.426Z,2.59
2023-03-05T05:41:26.433Z,3.15
2023-03-05T05:46:29.669Z,4.53
2023-03-05T05:51:32.656Z,5.13
2023-03-05T05:56:35.782Z,4.74
2023-03-05T06:01:38.897Z,3.74
2023-03-05T06:06:42.182Z,2.15
2023-03-05T06:11:45.177Z,0.86
2023-03-05T06:16:48.445Z,-0.07
2023-03-05T06:21:51.508Z,0.88
2023-03-05T06:26:54.520Z,3.04
2023-03-05T06:31:57.673Z,3.97
2023-03-05T06:37:00.738Z,6.52
2023-03-05T06:42:03.739Z,8.89
2023-03-05T06:47:09.418Z,10.71
2023-03-05T06:52:13.029Z,12.00
2023-03-05T06:57:16.036Z,12.79
2023-03-05T07:02:19.489Z,13.49
2023-03-05T07:07:22.663Z,14.21
2023-03-05T07:12:25.766Z,14.81
2023-03-05T07:17:28.781Z,15.04
2023-03-05T07:22:32.204Z,15.21
2023-03-05T07:27:37.147Z,15.46
2023-03-05T07:32:40.455Z,15.63
2023-03-05T07:37:43.584Z,15.95
2023-03-05T07:42:46.468Z,16.30
2023-03-05T07:47:51.070Z,16.60
2023-03-05T07:52:55.772Z,16.73
2023-03-05T07:57:58.969Z,16.75
2023-03-05T08:03:02.187Z,16.81
2023-03-05T08:08:05.790Z,16.69
2023-03-05T08:13:09.022Z,16.07
2023-03-05T08:18:13.966Z,14.26
2023-03-05T08:23:16.971Z,12.36
2023-03-05T08:28:20.085Z,11.07
2023-03-05T08:33:23.198Z,11.45
2023-03-05T08:38:26.954Z,11.62
2023-03-05T08:43:31.466Z,10.55
2023-03-05T08:48:35.273Z,8.32
2023-03-05T08:53:38.785Z,6.62
2023-03-05T08:58:42.445Z,5.57
2023-03-05T09:03:45.528Z,4.88
2023-03-05T09:08:48.554Z,4.49
2023-03-05T09:13:51.769Z,4.22
2023-03-05T09:18:54.756Z,4.04
2023-03-05T09:24:00.146Z,3.85
2023-03-05T09:29:03.748Z,3.76
2023-03-05T09:34:08.392Z,3.88
2023-03-05T09:39:11.902Z,3.99
2023-03-05T09:44:30.059Z,4.10
2023-03-05T09:50:02.046Z,4.21
2023-03-05T09:55:30.038Z,4.24
2023-03-05T10:00:45.363Z,4.22
2023-03-05T10:05:58.576Z,4.12
2023-03-05T10:11:08.829Z,4.12
2023-03-05T10:16:33.109Z,3.99
2023-03-05T10:21:57.172Z,3.85
2023-03-05T10:27:14.547Z,4.02
2023-03-05T10:32:45.181Z,4.63
2023-03-05T10:38:14.384Z,5.08
2023-03-05T10:43:37.564Z,5.21
2023-03-05T10:48:46.609Z,4.75
2023-03-05T10:54:02.213Z,4.20
2023-03-05T10:59:05.116Z,3.65
2023-03-05T11:04:26.549Z,3.20
2023-03-05T11:09:32.731Z,3.28
2023-03-05T11:33:20.633Z,5.86
2023-03-05T11:38:26.648Z,6.34
2023-03-05T11:43:31.480Z,6.10
2023-03-05T11:48:40.107Z,5.26
2023-03-05T11:53:46.333Z,4.17
2023-03-05T11:59:14.308Z,3.60
2023-03-05T12:04:18.561Z,3.39
2023-03-05T12:09:25.856Z,3.05
2023-03-05T12:14:58.664Z,2.54
2023-03-05T12:20:40.688Z,2.21
2023-03-05T12:25:59.464Z,2.39
2023-03-05T12:31:09.600Z,2.67
2023-03-05T12:36:22.075Z,3.09
2023-03-05T12:41:27.961Z,3.84
2023-03-05T12:46:35.964Z,4.63
2023-03-05T12:51:41.958Z,4.91
2023-03-05T12:56:47.384Z,4.61
2023-03-05T13:02:03.834Z,4.30
2023-03-05T13:07:15.529Z,4.24
2023-03-05T13:12:18.927Z,4.03
2023-03-05T13:17:35.877Z,3.84
2023-03-05T13:22:39.182Z,3.99
2023-03-05T13:27:43.598Z,3.91
2023-03-05T13:32:52.391Z,3.66
2023-03-05T13:37:57.183Z,3.55
2023-03-05T13:43:20.828Z,3.55
2023-03-05T13:48:25.656Z,3.69
2023-03-05T13:53:31.016Z,3.73
2023-03-05T13:58:40.783Z,3.66
2023-03-05T14:03:44.095Z,3.57
2023-03-05T14:08:53.248Z,3.31
2023-03-05T14:14:06.764Z,3.02
2023-03-05T14:19:32.126Z,2.96
2023-03-05T14:24:35.235Z,3.05
2023-03-05T14:29:38.354Z,3.19
2023-03-05T14:34:42.849Z,3.25
2023-03-05T14:40:00.981Z,3.23
2023-03-05T14:45:18.530Z,3.07
2023-03-05T14:50:24.610Z,2.84
2023-03-05T14:55:32.040Z,2.58
2023-03-05T15:00:35.428Z,2.22
2023-03-05T15:05:39.559Z,1.90
2023-03-05T15:10:43.185Z,1.62
2023-03-05T15:15:48.124Z,1.46
2023-03-05T15:20:54.934Z,1.38
2023-03-05T15:25:58.011Z,1.30
2023-03-05T15:31:01.354Z,1.23
2023-03-05T15:36:05.587Z,1.16
2023-03-05T15:41:08.568Z,1.06
2023-03-05T15:46:11.735Z,0.93
2023-03-05T15:51:14.889Z,0.79
2023-03-05T15:56:18.570Z,0.61
2023-03-05T16:01:23.572Z,0.37
2023-03-05T16:06:26.782Z,0.09
2023-03-05T16:11:32.802Z,-0.18
2023-03-05T16:16:36.699Z,-0.45
2023-03-05T16:21:40.045Z,-0.69
2023-03-05T16:26:43.439Z,-0.92
2023-03-05T16:31:47.782Z,-1.13
2023-03-05T16:36:52.990Z,-1.33
2023-03-05T16:41:57.973Z,-1.49
2023-03-05T16:47:01.129Z,-1.59
2023-03-05T16:52:17.736Z,-0.79
2023-03-05T16:57:24.197Z,0.87
2023-03-05T17:02:27.408Z,-0.19
2023-03-05T17:07:30.605Z,-0.83
2023-03-05T17:12:33.726Z,0.35
2023-03-05T17:17:38.671Z,2.40
2023-03-05T17:22:41.887Z,1.41
2023-03-05T17:27:44.995Z,-0.04
2023-03-05T17:32:48.095Z,-0.85
2023-03-05T17:37:51.924Z,-0.30
2023-03-05T17:42:55.234Z,3.40
2023-03-05T17:47:58.860Z,2.65
2023-03-05T17:53:02.077Z,0.64
2023-03-05T17:58:05.284Z,-0.44
2023-03-05T18:03:08.489Z,-1.13
2023-03-05T18:08:11.599Z,-0.89
2023-03-05T18:13:14.615Z,3.25
2023-03-05T18:18:18.603Z,3.67
2023-03-05T18:23:21.880Z,1.07
2023-03-05T18:28:26.087Z,-0.29
2023-03-05T18:33:29.189Z,-1.14
2023-03-05T18:38:32.605Z,-1.72
2023-03-05T18:43:35.824Z,0.06
2023-03-05T18:48:39.026Z,2.63
2023-03-05T18:53:42.156Z,4.95
2023-03-05T18:58:45.652Z,4.42
2023-03-05T19:03:49.427Z,1.54
2023-03-05T19:08:57.506Z,-0.09
2023-03-05T19:14:00.620Z,-1.08
2023-03-05T19:19:16.605Z,-1.75
2023-03-05T19:24:24.218Z,0.09
2023-03-05T19:29:33.065Z,1.42
2023-03-05T19:34:37.220Z,0.19
2023-03-05T19:39:40.646Z,-1.11
2023-03-05T19:44:43.746Z,-1.71
2023-03-05T19:49:46.952Z,1.19
2023-03-05T19:54:50.161Z,4.57
2023-03-05T19:59:53.996Z,3.08
2023-03-05T20:04:57.809Z,0.54
2023-03-05T20:10:01.076Z,-0.80
2023-03-05T20:15:04.473Z,-1.66
2023-03-05T20:20:08.586Z,-2.30
2023-03-05T20:25:13.634Z,-2.34
2023-03-05T20:30:18.073Z,1.63
2023-03-05T20:35:21.904Z,4.76
2023-03-05T20:40:25.004Z,4.72
2023-03-05T20:45:28.228Z,1.57
2023-03-05T20:50:33.597Z,-0.26
2023-03-05T20:55:36.696Z,-1.36
2023-03-05T21:00:40.383Z,-2.13
2023-03-05T21:05:43.428Z,-1.44
2023-03-05T21:10:46.739Z,2.02
2023-03-05T21:15:49.847Z,3.80
2023-03-05T21:20:52.971Z,1.26
2023-03-05T21:25:56.094Z,-0.61
2023-03-05T21:31:06.966Z,-1.67
2023-03-05T21:36:10.380Z,0.41
2023-03-05T21:41:13.484Z,3.84
2023-03-05T21:46:16.674Z,3.67
2023-03-05T21:51:22.772Z,0.81
2023-03-05T21:56:26.592Z,-0.66
2023-03-05T22:01:29.742Z,-0.19
2023-03-05T22:06:32.802Z,3.62
2023-03-05T22:11:36.191Z,3.36
2023-03-05T22:16:39.253Z,0.81
2023-03-05T22:21:42.335Z,-0.49
2023-03-05T22:26:45.455Z,1.24
2023-03-05T22:31:48.655Z,3.90
2023-03-05T22:36:51.767Z,2.82
2023-03-05T22:41:55.069Z,0.58
2023-03-05T22:46:58.178Z,-0.70
2023-03-05T22:52:01.286Z,0.66
2023-03-05T22:57:05.043Z,3.00
2023-03-05T23:02:08.020Z,0.74
2023-03-05T23:07:11.048Z,-0.81
2023-03-05T23:12:14.246Z,-0.79
2023-03-05T23:17:17.475Z,2.91
2023-03-05T23:22:20.879Z,3.50
2023-03-05T23:27:23.989Z,0.66
2023-03-05T23:32:30.794Z,-0.99
2023-03-05T23:37:33.888Z,-0.28
2023-03-05T23:42:38.438Z,3.80
2023-03-05T23:47:41.743Z,3.02
2023-03-05T23:52:45.976Z,0.29
2023-03-05T23:57:49.391Z,-1.27
